Time;durP1;ratioP1;P1;durP2;ratioP2;P2;SDS_P1;SDS_P2;PMS_P1;PMS_P2;Temp;Humidity;BMP_temperature;BMP_pressure;BME280_temperature;BME280_humidity;BME280_pressure;Samples;Min_cycle;Max_cycle;Signal;HPM_P1;HPM_P2
2023/03/01 00:00:49;;;;;;;45.55;42.28;;;9.20;99.90;;;;;;5205565;28;20025;-69
2023/03/01 00:03:20;;;;;;;46.88;43.33;;;9.30;99.90;;;;;;5205618;28;20033;-68
2023/03/01 00:05:51;;;;;;;50.35;47.00;;;9.30;99.90;;;;;;5205544;28;20056;-68
2023/03/01 00:08:21;;;;;;;45.05;41.92;;;9.20;99.90;;;;;;5205531;28;20029;-68
2023/03/01 00:11:07;;;;;;;48.72;45.47;;;9.30;99.90;;;;;;5205530;28;20028;-68
2023/03/01 00:13:39;;;;;;;44.95;42.05;;;9.20;99.90;;;;;;5205550;28;20362;-69
2023/03/01 00:16:16;;;;;;;48.00;45.05;;;9.20;99.90;;;;;;5205252;28;20048;-68
2023/03/01 00:18:47;;;;;;;46.58;43.15;;;9.30;99.90;;;;;;5204185;28;20559;-69
2023/03/01 00:21:21;;;;;;;52.00;48.28;;;9.20;99.90;;;;;;5205294;28;20128;-68
2023/03/01 00:23:53;;;;;;;48.03;44.63;;;9.10;99.90;;;;;;5205303;28;20034;-69
2023/03/01 00:26:25;;;;;;;49.40;46.05;;;9.30;99.90;;;;;;5205076;28;20032;-68
2023/03/01 00:28:57;;;;;;;52.28;48.88;;;9.10;99.90;;;;;;5205463;28;20041;-68
2023/03/01 00:31:30;;;;;;;46.88;43.70;;;9.20;99.90;;;;;;5205223;28;20036;-68
2023/03/01 00:34:04;;;;;;;49.85;46.45;;;9.20;99.90;;;;;;5205281;28;20069;-69
2023/03/01 00:36:37;;;;;;;51.25;47.88;;;9.30;99.90;;;;;;5205282;28;20662;-69
2023/03/01 00:39:13;;;;;;;46.90;43.72;;;9.30;99.90;;;;;;5205184;28;20493;-68
2023/03/01 00:41:44;;;;;;;50.30;47.20;;;9.30;99.90;;;;;;5205177;28;20083;-69
2023/03/01 00:44:15;;;;;;;49.42;46.10;;;9.20;99.90;;;;;;5205350;28;20025;-68
2023/03/01 00:46:46;;;;;;;49.75;46.35;;;9.10;99.90;;;;;;5205110;28;20017;-68
2023/03/01 00:49:16;;;;;;;50.75;47.25;;;9.20;99.90;;;;;;5205147;28;20068;-69
2023/03/01 00:51:47;;;;;;;52.47;49.08;;;9.00;99.90;;;;;;5206995;28;20022;-69
2023/03/01 00:54:18;;;;;;;51.97;48.55;;;9.30;99.90;;;;;;5208691;28;20037;-69
2023/03/01 00:56:49;;;;;;;52.95;49.08;;;9.10;99.90;;;;;;5208236;28;20041;-68
2023/03/01 00:59:20;;;;;;;51.85;48.45;;;9.20;99.90;;;;;;5208929;28;20029;-68
2023/03/01 01:01:50;;;;;;;50.28;46.78;;;9.20;99.90;;;;;;5208732;28;20068;-68
2023/03/01 01:04:22;;;;;;;49.70;46.25;;;9.10;99.90;;;;;;5208676;28;20037;-68
2023/03/01 01:06:53;;;;;;;50.55;47.33;;;9.30;99.90;;;;;;5208579;28;20036;-69
2023/03/01 01:09:23;;;;;;;48.60;45.33;;;9.30;99.90;;;;;;5208503;28;20453;-68
2023/03/01 01:11:54;;;;;;;52.22;48.38;;;9.20;99.90;;;;;;5208491;28;20664;-68
2023/03/01 01:14:25;;;;;;;55.55;51.45;;;9.10;99.90;;;;;;5208412;28;20116;-68
2023/03/01 01:16:56;;;;;;;54.17;50.47;;;9.20;99.90;;;;;;5208385;28;20072;-69
2023/03/01 01:19:28;;;;;;;58.95;54.65;;;9.20;99.90;;;;;;5208394;28;20033;-68
2023/03/01 01:21:59;;;;;;;50.65;47.15;;;9.10;99.90;;;;;;5208145;28;20029;-68
2023/03/01 01:24:30;;;;;;;52.38;48.60;;;9.10;99.90;;;;;;5208268;28;20040;-68
2023/03/01 01:27:01;;;;;;;50.40;46.67;;;9.30;99.90;;;;;;5207878;28;20057;-68
2023/03/01 01:29:31;;;;;;;52.08;48.40;;;9.30;99.90;;;;;;5208180;28;20041;-69
2023/03/01 01:32:02;;;;;;;53.53;49.75;;;9.20;99.90;;;;;;5208003;28;20025;-68
2023/03/01 01:34:33;;;;;;;48.72;45.33;;;9.10;99.90;;;;;;5207815;28;20033;-68
2023/03/01 01:37:07;;;;;;;52.60;48.80;;;9.20;99.90;;;;;;5208005;28;20029;-69
2023/03/01 01:39:38;;;;;;;52.70;48.78;;;9.30;99.90;;;;;;5208080;28;20033;-69
2023/03/01 01:42:16;;;;;;;55.95;51.72;;;9.20;99.90;;;;;;5207801;28;20424;-68
2023/03/01 01:44:47;;;;;;;54.88;50.70;;;9.10;99.90;;;;;;5207843;28;20032;-69
2023/03/01 01:47:21;;;;;;;52.70;49.00;;;9.20;99.90;;;;;;5207619;28;20036;-69
2023/03/01 01:49:56;;;;;;;52.78;49.03;;;9.30;99.90;;;;;;5207709;28;20025;-68
2023/03/01 01:52:36;;;;;;;48.10;44.53;;;9.20;99.90;;;;;;5207671;28;20032;-68
2023/03/01 01:55:27;;;;;;;50.05;46.15;;;9.30;99.90;;;;;;5207596;28;20045;-68
2023/03/01 01:58:02;;;;;;;50.80;47.50;;;9.20;99.90;;;;;;5207562;28;20037;-68
2023/03/01 02:00:33;;;;;;;48.15;44.65;;;9.30;99.90;;;;;;5207402;28;20029;-68
2023/03/01 02:03:22;;;;;;;46.25;43.17;;;9.20;99.90;;;;;;5206798;28;20032;-68
2023/03/01 02:06:10;;;;;;;46.92;43.78;;;9.10;99.90;;;;;;5207399;28;20017;-68
2023/03/01 02:08:42;;;;;;;49.75;46.13;;;9.10;99.90;;;;;;5207462;28;20032;-68
2023/03/01 02:11:16;;;;;;;50.83;47.33;;;9.30;99.90;;;;;;5207391;28;20033;-68
2023/03/01 02:13:48;;;;;;;49.13;45.50;;;9.30;99.90;;;;;;5207414;28;20017;-69
2023/03/01 02:16:19;;;;;;;46.58;43.47;;;9.10;99.90;;;;;;5207353;28;20081;-68
2023/03/01 02:18:51;;;;;;;50.22;46.63;;;9.10;99.90;;;;;;5207322;28;20029;-68
2023/03/01 02:21:52;;;;;;;46.45;43.13;;;9.10;99.90;;;;;;5207191;28;20030;-68
2023/03/01 02:25:00;;;;;;;43.45;40.38;;;9.30;99.90;;;;;;5207216;28;20500;-68
2023/03/01 02:27:54;;;;;;;47.58;44.28;;;9.10;99.90;;;;;;5202395;28;20050;-69
2023/03/01 02:30:29;;;;;;;48.67;45.15;;;9.20;99.90;;;;;;5206886;28;20049;-68
2023/03/01 02:33:04;;;;;;;49.30;45.70;;;9.20;99.90;;;;;;5206806;28;20030;-68
2023/03/01 02:35:38;;;;;;;48.85;45.35;;;9.30;99.90;;;;;;5206646;28;20038;-68
2023/03/01 02:38:09;;;;;;;50.20;46.58;;;9.20;99.90;;;;;;5206956;28;20032;-69
2023/03/01 02:40:41;;;;;;;48.90;45.42;;;9.10;99.90;;;;;;5206742;28;20426;-68
2023/03/01 02:43:13;;;;;;;48.17;44.53;;;9.10;99.90;;;;;;5206740;28;20505;-68
2023/03/01 02:45:49;;;;;;;49.67;46.05;;;9.20;99.90;;;;;;5206636;28;20026;-68
2023/03/01 02:48:20;;;;;;;50.38;46.78;;;9.20;99.90;;;;;;5206547;28;20125;-69
2023/03/01 02:51:27;;;;;;;50.72;46.72;;;9.10;99.90;;;;;;5206439;28;20025;-68
2023/03/01 02:54:19;;;;;;;53.15;48.45;;;9.20;99.90;;;;;;5206506;28;20464;-69
2023/03/01 02:56:51;;;;;;;53.08;48.67;;;9.20;99.90;;;;;;5206142;28;20073;-69
2023/03/01 02:59:30;;;;;;;51.50;47.28;;;9.20;99.90;;;;;;5206429;28;20476;-68
2023/03/01 03:02:01;;;;;;;50.28;46.67;;;9.10;99.90;;;;;;5206297;28;20036;-68
2023/03/01 03:04:32;;;;;;;54.80;50.65;;;9.10;99.90;;;;;;5206286;28;20028;-68
2023/03/01 03:07:03;;;;;;;57.13;52.60;;;9.10;99.90;;;;;;5206247;28;20385;-68
2023/03/01 03:09:34;;;;;;;55.05;50.97;;;9.30;99.90;;;;;;5206124;28;20021;-68
2023/03/01 03:12:05;;;;;;;59.53;55.22;;;9.30;99.90;;;;;;5206091;28;20053;-68
2023/03/01 03:14:36;;;;;;;57.15;52.85;;;9.30;99.90;;;;;;5205306;28;20026;-68
2023/03/01 03:17:07;;;;;;;60.15;55.70;;;9.20;99.90;;;;;;5206083;28;20429;-68
2023/03/01 03:19:37;;;;;;;60.25;55.75;;;9.20;99.90;;;;;;5206057;28;20052;-68
2023/03/01 03:22:08;;;;;;;61.10;56.45;;;9.30;99.90;;;;;;5205998;28;20483;-68
2023/03/01 03:24:39;;;;;;;59.15;54.75;;;9.20;99.90;;;;;;5205956;28;20075;-68
2023/03/01 03:27:10;;;;;;;58.97;54.35;;;9.20;99.90;;;;;;5205758;28;20049;-68
2023/03/01 03:29:41;;;;;;;59.22;54.53;;;9.20;99.90;;;;;;5206167;28;20042;-68
2023/03/01 03:32:12;;;;;;;57.65;53.10;;;9.20;99.90;;;;;;5205773;28;20020;-68
2023/03/01 03:34:43;;;;;;;58.90;54.33;;;9.20;99.90;;;;;;5205668;28;20050;-69
2023/03/01 03:38:01;;;;;;;60.20;55.67;;;9.20;99.90;;;;;;5204334;28;20037;-68
2023/03/01 03:40:15;;;;;;;60.05;55.83;;;9.20;99.90;;;;;;5204829;28;20025;-68
2023/03/01 03:42:47;;;;;;;60.10;55.85;;;9.30;99.90;;;;;;5205858;28;20029;-67
2023/03/01 03:45:19;;;;;;;62.45;57.83;;;9.30;99.90;;;;;;5205785;28;20377;-69
2023/03/01 03:47:49;;;;;;;60.08;55.45;;;9.20;99.90;;;;;;5205743;28;20033;-68
2023/03/01 03:50:20;;;;;;;62.05;57.22;;;9.40;99.90;;;;;;5205690;28;20029;-68
2023/03/01 03:52:51;;;;;;;56.70;52.38;;;9.30;99.90;;;;;;5205694;28;20029;-68
2023/03/01 03:55:22;;;;;;;57.22;53.03;;;9.30;99.90;;;;;;5205380;28;20452;-68
2023/03/01 03:57:53;;;;;;;94.28;85.43;;;9.20;99.90;;;;;;5205685;28;20377;-69
2023/03/01 04:00:24;;;;;;;81.97;75.50;;;9.20;99.90;;;;;;5205581;28;20032;-68
2023/03/01 04:02:56;;;;;;;374.30;336.95;;;9.20;99.90;;;;;;5205579;28;20030;-68
2023/03/01 04:05:27;;;;;;;131.38;119.68;;;9.20;99.90;;;;;;5205446;28;20025;-68
2023/03/01 04:08:01;;;;;;;67.00;62.25;;;9.10;99.90;;;;;;5205462;28;20072;-68
2023/03/01 04:10:34;;;;;;;59.67;55.28;;;9.10;99.90;;;;;;5205584;28;20112;-68
2023/03/01 04:13:06;;;;;;;62.90;58.03;;;9.30;99.90;;;;;;5205494;28;20069;-68
2023/03/01 04:15:37;;;;;;;65.68;60.38;;;9.30;99.90;;;;;;5205225;28;20039;-68
2023/03/01 04:18:15;;;;;;;58.78;54.47;;;9.20;99.90;;;;;;5205308;28;20030;-68
2023/03/01 04:20:47;;;;;;;55.40;51.17;;;9.20;99.90;;;;;;5205331;28;20025;-68
2023/03/01 04:23:22;;;;;;;56.20;51.75;;;9.20;99.90;;;;;;5205353;28;20087;-69
2023/03/01 04:25:56;;;;;;;57.05;52.95;;;9.30;99.90;;;;;;5205989;28;20021;-67
2023/03/01 04:28:34;;;;;;;53.20;49.35;;;9.20;99.90;;;;;;5209185;28;20064;-68
2023/03/01 04:31:13;;;;;;;51.05;46.92;;;9.20;99.90;;;;;;5209342;28;20113;-68
2023/03/01 04:33:53;;;;;;;51.95;47.88;;;9.40;99.90;;;;;;5209274;28;20068;-68
2023/03/01 04:36:27;;;;;;;49.25;45.45;;;9.20;99.90;;;;;;5209218;28;20874;-69
2023/03/01 04:38:58;;;;;;;51.30;47.45;;;9.20;99.90;;;;;;5209312;28;20033;-68
2023/03/01 04:41:28;;;;;;;50.97;47.15;;;9.20;99.90;;;;;;5209240;28;20029;-69
2023/03/01 04:43:59;;;;;;;51.85;48.15;;;9.40;99.90;;;;;;5209350;28;20346;-68
2023/03/01 04:46:30;;;;;;;49.05;45.17;;;9.30;99.90;;;;;;5209366;28;20029;-68
2023/03/01 04:49:02;;;;;;;47.17;43.30;;;9.30;99.90;;;;;;5209133;28;20100;-68
2023/03/01 04:51:33;;;;;;;47.70;43.92;;;9.20;99.90;;;;;;5209000;28;20029;-68
2023/03/01 04:54:08;;;;;;;49.28;45.58;;;9.30;99.90;;;;;;5208999;28;20022;-68
2023/03/01 04:56:39;;;;;;;53.28;49.20;;;9.20;99.90;;;;;;5208614;28;20045;-69
2023/03/01 04:59:12;;;;;;;50.10;46.17;;;9.30;99.90;;;;;;5208873;28;20021;-69
2023/03/01 05:01:43;;;;;;;53.30;49.33;;;9.30;99.90;;;;;;5208762;28;20033;-68
2023/03/01 05:04:14;;;;;;;54.83;50.72;;;9.40;99.90;;;;;;5208680;28;20025;-68
2023/03/01 05:06:45;;;;;;;52.55;48.17;;;9.30;99.90;;;;;;5207441;28;20025;-69
2023/03/01 05:09:16;;;;;;;52.40;48.13;;;9.30;99.90;;;;;;5208630;28;20029;-69
2023/03/01 05:11:47;;;;;;;60.92;56.05;;;9.30;99.90;;;;;;5208534;28;20030;-69
2023/03/01 05:14:17;;;;;;;57.53;53.05;;;9.30;99.90;;;;;;5208480;28;20084;-69
2023/03/01 05:16:48;;;;;;;57.17;53.10;;;9.30;99.90;;;;;;5208404;28;20037;-69
2023/03/01 05:19:22;;;;;;;57.83;53.55;;;9.30;99.90;;;;;;5208389;28;20432;-69
2023/03/01 05:22:01;;;;;;;56.10;51.95;;;9.40;99.90;;;;;;5208181;28;20033;-68
2023/03/01 05:24:34;;;;;;;57.92;53.47;;;9.40;99.90;;;;;;5208387;28;20051;-69
2023/03/01 05:27:06;;;;;;;65.53;60.25;;;9.30;99.90;;;;;;5207704;28;20381;-68
2023/03/01 05:29:39;;;;;;;65.32;60.45;;;9.30;99.90;;;;;;5208214;28;20033;-68
2023/03/01 05:32:15;;;;;;;59.92;55.20;;;9.30;99.90;;;;;;5207991;28;20029;-69
2023/03/01 05:34:46;;;;;;;60.10;55.65;;;9.40;99.90;;;;;;5207984;28;20049;-68
2023/03/01 05:37:17;;;;;;;60.47;55.95;;;9.30;99.90;;;;;;5207208;28;20497;-68
2023/03/01 05:39:50;;;;;;;56.58;52.25;;;9.30;99.90;;;;;;5207769;28;20022;-68
2023/03/01 05:42:21;;;;;;;66.13;61.15;;;9.40;99.90;;;;;;5207877;28;20033;-68
2023/03/01 05:44:51;;;;;;;65.00;60.38;;;9.40;99.90;;;;;;5207844;28;20033;-69
2023/03/01 05:47:22;;;;;;;60.53;55.95;;;9.30;99.90;;;;;;5206574;28;20021;-69
2023/03/01 05:49:53;;;;;;;62.72;58.20;;;9.40;99.90;;;;;;5207816;28;20037;-68
2023/03/01 05:52:24;;;;;;;64.25;59.40;;;9.40;99.90;;;;;;5207802;28;20021;-69
2023/03/01 05:54:55;;;;;;;64.07;59.25;;;9.50;99.90;;;;;;5207657;28;20037;-69
2023/03/01 05:57:28;;;;;;;77.65;71.63;;;9.30;99.90;;;;;;5207398;28;20055;-69
2023/03/01 05:59:59;;;;;;;71.07;65.82;;;9.50;99.90;;;;;;5207653;28;20040;-68
2023/03/01 06:02:30;;;;;;;70.72;65.40;;;9.40;99.90;;;;;;5207735;28;20021;-68
2023/03/01 06:05:02;;;;;;;76.72;71.07;;;9.30;99.90;;;;;;5207797;28;20041;-70
2023/03/01 06:07:33;;;;;;;69.47;63.83;;;9.40;99.90;;;;;;5207554;28;20067;-69
2023/03/01 06:10:05;;;;;;;65.28;60.33;;;9.40;99.90;;;;;;5207520;28;20029;-68
2023/03/01 06:12:37;;;;;;;64.78;60.05;;;9.30;99.90;;;;;;5207275;28;20029;-69
2023/03/01 06:15:10;;;;;;;70.82;65.22;;;9.40;99.90;;;;;;5207212;28;20041;-69
2023/03/01 06:17:44;;;;;;;86.90;80.00;;;9.40;99.90;;;;;;5207232;28;20108;-69
2023/03/01 06:20:20;;;;;;;112.05;100.00;;;9.30;99.90;;;;;;5207287;28;20166;-68
2023/03/01 06:22:52;;;;;;;78.68;71.22;;;9.40;99.90;;;;;;5207142;28;20029;-69
2023/03/01 06:25:25;;;;;;;79.68;71.88;;;9.30;99.90;;;;;;5207090;28;20033;-68
2023/03/01 06:27:56;;;;;;;73.35;66.47;;;9.30;99.90;;;;;;5206514;28;20037;-69
2023/03/01 06:30:27;;;;;;;123.68;88.40;;;9.40;99.90;;;;;;5206870;28;20038;-69
2023/03/01 06:33:00;;;;;;;78.45;70.63;;;9.40;99.90;;;;;;5206761;28;20047;-69
2023/03/01 06:35:32;;;;;;;78.03;70.70;;;9.50;99.90;;;;;;5206757;28;20477;-69
2023/03/01 06:38:04;;;;;;;65.63;59.97;;;9.50;99.90;;;;;;5206711;28;20121;-69
2023/03/01 06:40:35;;;;;;;65.13;59.72;;;9.40;99.90;;;;;;5206540;28;20033;-69
2023/03/01 06:43:07;;;;;;;65.78;60.10;;;9.40;99.90;;;;;;5206521;28;20028;-68
2023/03/01 06:45:38;;;;;;;64.47;59.38;;;9.40;99.90;;;;;;5206731;28;20026;-68
2023/03/01 06:48:09;;;;;;;64.50;59.50;;;9.50;99.90;;;;;;5206558;28;20021;-68
2023/03/01 06:50:40;;;;;;;65.00;59.58;;;9.40;99.90;;;;;;5206424;28;20025;-68
2023/03/01 06:53:10;;;;;;;60.13;55.33;;;9.60;99.90;;;;;;5206659;28;20100;-68
2023/03/01 06:55:42;;;;;;;86.38;78.22;;;9.60;99.90;;;;;;5206045;28;20137;-69
2023/03/01 06:58:13;;;;;;;88.88;81.15;;;9.40;99.90;;;;;;5206468;28;20499;-67
2023/03/01 07:00:44;;;;;;;69.35;64.05;;;9.60;99.90;;;;;;5206322;28;20033;-68
2023/03/01 07:03:15;;;;;;;84.60;78.35;;;9.40;99.90;;;;;;5205613;28;20137;-68
2023/03/01 07:05:48;;;;;;;70.38;64.78;;;9.50;99.90;;;;;;5205599;28;20545;-68
2023/03/01 07:08:19;;;;;;;65.80;60.80;;;9.50;99.90;;;;;;5185558;28;20366;-68
2023/03/01 07:10:58;;;;;;;71.93;66.07;;;9.40;99.90;;;;;;5185630;28;20116;-68
2023/03/01 07:13:29;;;;;;;69.28;63.40;;;9.40;99.90;;;;;;5185532;28;20109;-68
2023/03/01 07:16:00;;;;;;;61.97;57.17;;;9.50;99.90;;;;;;5185683;28;20072;-68
2023/03/01 07:18:31;;;;;;;66.53;61.22;;;9.60;99.90;;;;;;5185485;28;20409;-68
2023/03/01 07:21:07;;;;;;;65.75;60.55;;;9.60;99.90;;;;;;5185617;28;20084;-68
2023/03/01 07:23:38;;;;;;;64.75;59.45;;;9.70;99.90;;;;;;5185631;28;20026;-68
2023/03/01 07:26:09;;;;;;;62.95;57.97;;;9.60;99.90;;;;;;5184754;28;20034;-68
2023/03/01 07:28:39;;;;;;;65.45;60.85;;;9.50;99.90;;;;;;5185209;28;20104;-68
2023/03/01 07:31:10;;;;;;;57.28;52.88;;;9.60;99.90;;;;;;5185464;28;20033;-68
2023/03/01 07:33:41;;;;;;;59.28;54.67;;;9.60;99.90;;;;;;5185649;28;20462;-68
2023/03/01 07:36:12;;;;;;;61.35;56.55;;;9.60;99.90;;;;;;5185470;28;20048;-68
2023/03/01 07:38:43;;;;;;;66.93;61.72;;;9.70;99.90;;;;;;5185637;28;20026;-68
2023/03/01 07:41:14;;;;;;;63.95;59.08;;;9.70;99.90;;;;;;5185357;28;20393;-68
2023/03/01 07:43:45;;;;;;;61.85;57.22;;;9.70;99.90;;;;;;5185434;28;20664;-68
2023/03/01 07:46:15;;;;;;;63.63;58.85;;;9.60;99.90;;;;;;5185508;28;20033;-69
2023/03/01 07:48:46;;;;;;;77.95;72.03;;;9.60;99.90;;;;;;5185253;28;20042;-68
2023/03/01 07:51:17;;;;;;;53.10;48.67;;;9.60;99.90;;;;;;5197751;28;20037;-68
2023/03/01 07:53:48;;;;;;;52.75;48.10;;;9.50;99.90;;;;;;5205599;28;20412;-67
2023/03/01 07:56:21;;;;;;;51.67;47.47;;;9.60;99.90;;;;;;5205304;28;20454;-68
2023/03/01 07:58:52;;;;;;;51.78;47.55;;;9.60;99.90;;;;;;5205613;28;20026;-68
2023/03/01 08:01:23;;;;;;;52.75;48.30;;;9.60;99.90;;;;;;5207041;28;20067;-68
2023/03/01 08:03:54;;;;;;;52.40;47.83;;;9.70;99.90;;;;;;5209780;28;20029;-67
2023/03/01 08:06:25;;;;;;;51.00;46.67;;;9.80;99.90;;;;;;5209774;28;20060;-68
2023/03/01 08:08:56;;;;;;;59.75;54.95;;;9.70;99.90;;;;;;5209730;28;20033;-67
2023/03/01 08:11:30;;;;;;;59.47;54.72;;;9.80;99.90;;;;;;5209610;28;20098;-68
2023/03/01 08:14:00;;;;;;;60.22;55.30;;;9.60;99.90;;;;;;5209477;28;20033;-68
2023/03/01 08:16:33;;;;;;;59.13;53.97;;;9.70;99.90;;;;;;5209036;28;20037;-68
2023/03/01 08:19:12;;;;;;;59.20;54.35;;;9.60;99.90;;;;;;5209311;28;20056;-68
2023/03/01 08:21:42;;;;;;;56.00;51.40;;;10.00;99.90;;;;;;5209365;28;20042;-67
2023/03/01 08:24:13;;;;;;;114.45;102.20;;;9.80;99.90;;;;;;5209314;28;20100;-67
2023/03/01 08:26:44;;;;;;;53.22;48.63;;;9.60;99.90;;;;;;5208863;28;20125;-67
2023/03/01 08:29:15;;;;;;;51.10;46.50;;;9.50;99.90;;;;;;5209156;28;20033;-67
2023/03/01 08:31:47;;;;;;;52.95;47.67;;;9.70;99.90;;;;;;5209180;28;20432;-68
2023/03/01 08:34:19;;;;;;;53.17;47.83;;;9.60;99.90;;;;;;5209088;28;20033;-67
2023/03/01 08:36:52;;;;;;;52.47;47.15;;;9.40;99.90;;;;;;5208974;28;20034;-68
2023/03/01 08:39:23;;;;;;;56.30;51.05;;;9.50;99.90;;;;;;5209287;28;20458;-68
2023/03/01 08:41:54;;;;;;;58.20;52.47;;;9.60;99.90;;;;;;5209327;28;20075;-68
2023/03/01 08:44:25;;;;;;;55.78;50.42;;;9.90;99.90;;;;;;5209047;28;20032;-68
2023/03/01 08:46:57;;;;;;;54.65;49.45;;;9.60;99.90;;;;;;5208943;28;20026;-68
2023/03/01 08:49:28;;;;;;;52.72;48.20;;;9.70;99.90;;;;;;5208841;28;20017;-68
2023/03/01 08:51:59;;;;;;;52.92;48.28;;;9.90;99.90;;;;;;5208682;28;20076;-68
2023/03/01 08:54:30;;;;;;;52.53;47.90;;;9.80;99.90;;;;;;5208749;28;20029;-68
2023/03/01 08:57:04;;;;;;;58.00;53.00;;;9.80;99.90;;;;;;5207376;28;20835;-68
2023/03/01 08:59:37;;;;;;;54.85;50.00;;;9.70;99.90;;;;;;5208914;28;20033;-67
2023/03/01 09:02:18;;;;;;;55.08;50.33;;;9.60;99.90;;;;;;5208598;28;20096;-68
2023/03/01 09:04:49;;;;;;;57.10;52.20;;;9.70;99.90;;;;;;5208587;28;20493;-67
2023/03/01 09:07:20;;;;;;;56.08;51.25;;;9.70;99.90;;;;;;5208752;28;20065;-67
2023/03/01 09:09:53;;;;;;;60.20;55.05;;;9.60;99.90;;;;;;5208550;28;20025;-68
2023/03/01 09:12:24;;;;;;;57.80;52.58;;;9.70;99.90;;;;;;5208567;28;20029;-68
2023/03/01 09:14:55;;;;;;;56.80;51.72;;;9.70;99.90;;;;;;5208334;28;20044;-68
2023/03/01 09:17:26;;;;;;;51.88;47.55;;;9.70;99.90;;;;;;5208446;28;20025;-68
2023/03/01 09:19:57;;;;;;;52.15;47.75;;;9.60;99.90;;;;;;5208369;28;20017;-68
2023/03/01 09:22:28;;;;;;;56.33;51.42;;;9.50;99.90;;;;;;5208259;28;20104;-68
2023/03/01 09:24:59;;;;;;;55.83;50.72;;;9.80;99.90;;;;;;5208146;28;20093;-68
2023/03/01 09:27:30;;;;;;;54.80;50.17;;;9.60;99.90;;;;;;5207976;28;20751;-68
2023/03/01 09:30:01;;;;;;;53.20;48.47;;;9.60;99.90;;;;;;5208073;28;20053;-68
2023/03/01 09:32:31;;;;;;;53.28;48.60;;;9.60;99.90;;;;;;5208059;28;20034;-68
2023/03/01 09:35:05;;;;;;;52.30;47.45;;;9.70;99.90;;;;;;5207934;28;20028;-68
2023/03/01 09:37:37;;;;;;;51.05;46.33;;;9.60;99.90;;;;;;5208053;28;20048;-68
2023/03/01 09:40:20;;;;;;;54.22;49.13;;;9.60;99.90;;;;;;5207867;28;20018;-68
2023/03/01 09:42:54;;;;;;;52.45;47.03;;;9.70;99.90;;;;;;5207991;28;20022;-68
2023/03/01 09:45:33;;;;;;;55.72;50.25;;;9.70;99.90;;;;;;5207840;28;20022;-68
2023/03/01 09:48:06;;;;;;;51.38;46.72;;;9.70;99.90;;;;;;5206673;28;20549;-67
2023/03/01 09:50:41;;;;;;;52.97;47.92;;;9.60;99.90;;;;;;5207819;28;20527;-68
2023/03/01 09:53:16;;;;;;;52.60;47.13;;;9.30;99.90;;;;;;5208057;28;20092;-67
2023/03/01 09:56:00;;;;;;;56.55;50.72;;;9.60;99.90;;;;;;5207616;28;20083;-68
2023/03/01 09:58:58;;;;;;;56.92;51.20;;;9.60;99.90;;;;;;5208003;28;20085;-68
2023/03/01 10:01:37;;;;;;;60.25;53.97;;;9.60;99.90;;;;;;5207750;28;20034;-67
2023/03/01 10:04:14;;;;;;;59.72;53.53;;;9.60;99.90;;;;;;5207761;28;20025;-67
2023/03/01 10:07:12;;;;;;;58.30;52.47;;;9.70;99.90;;;;;;5207586;28;20057;-68
2023/03/01 10:09:45;;;;;;;56.80;50.83;;;9.60;99.90;;;;;;5196609;28;20048;-67
2023/03/01 10:12:20;;;;;;;60.97;54.05;;;9.50;99.90;;;;;;5207347;28;20077;-68
2023/03/01 10:14:55;;;;;;;60.97;54.95;;;9.50;99.90;;;;;;5207282;28;20121;-67
2023/03/01 10:17:36;;;;;;;57.53;51.40;;;9.50;99.90;;;;;;5207361;28;20148;-67
2023/03/01 10:20:33;;;;;;;53.80;48.05;;;9.40;99.90;;;;;;5207291;28;20048;-68
2023/03/01 10:23:04;;;;;;;56.60;50.88;;;9.30;99.90;;;;;;5206997;28;20381;-67
2023/03/01 10:25:52;;;;;;;52.92;47.70;;;9.50;99.90;;;;;;5206561;28;20541;-68
2023/03/01 10:28:31;;;;;;;51.95;46.33;;;9.40;99.90;;;;;;5206934;28;20077;-69
2023/03/01 10:31:03;;;;;;;52.03;46.67;;;9.40;99.90;;;;;;5207009;28;20060;-64
2023/03/01 10:33:39;;;;;;;58.50;52.88;;;9.60;99.90;;;;;;5207007;28;20057;-66
2023/03/01 10:36:10;;;;;;;53.28;47.90;;;9.40;99.90;;;;;;5206939;28;20049;-67
2023/03/01 10:38:53;;;;;;;57.60;51.35;;;9.50;99.90;;;;;;5206322;28;20048;-67
2023/03/01 10:41:26;;;;;;;50.28;45.53;;;9.50;99.90;;;;;;5206646;28;20033;-67
2023/03/01 10:44:00;;;;;;;54.25;48.83;;;9.40;99.90;;;;;;5206676;28;20025;-67
2023/03/01 10:46:36;;;;;;;49.22;44.50;;;9.30;99.90;;;;;;5206672;28;20108;-67
2023/03/01 10:49:19;;;;;;;48.05;43.58;;;9.40;99.90;;;;;;5206725;28;20523;-68
2023/03/01 10:51:52;;;;;;;50.92;46.03;;;9.50;99.90;;;;;;5206560;28;20037;-67
2023/03/01 10:54:30;;;;;;;49.17;44.45;;;9.60;99.90;;;;;;5206416;28;20057;-68
2023/03/01 10:57:04;;;;;;;52.00;47.03;;;9.50;99.90;;;;;;5206322;28;20444;-68
2023/03/01 10:59:37;;;;;;;58.60;52.55;;;9.50;99.90;;;;;;5206440;28;20034;-68
2023/03/01 11:02:29;;;;;;;52.65;47.35;;;9.50;99.90;;;;;;5206458;28;20052;-68
2023/03/01 11:05:00;;;;;;;57.40;51.95;;;9.40;99.90;;;;;;5206388;28;20059;-67
2023/03/01 11:07:49;;;;;;;62.10;55.83;;;9.50;99.90;;;;;;5206084;28;20104;-67
2023/03/01 11:10:27;;;;;;;47.17;42.60;;;9.50;99.90;;;;;;5206218;28;20071;-67
2023/03/01 11:13:19;;;;;;;52.60;47.67;;;9.60;99.90;;;;;;5206216;28;20432;-67
2023/03/01 11:16:11;;;;;;;47.70;43.00;;;9.50;99.90;;;;;;5206200;28;20033;-67
2023/03/01 11:18:42;;;;;;;65.50;57.45;;;9.30;99.90;;;;;;5206587;28;20021;-67
2023/03/01 11:21:14;;;;;;;55.35;50.33;;;9.60;99.90;;;;;;5206233;28;20029;-67
2023/03/01 11:23:46;;;;;;;55.58;50.92;;;9.40;99.90;;;;;;5206217;28;20039;-67
2023/03/01 11:26:18;;;;;;;54.97;50.75;;;9.40;99.90;;;;;;5205719;28;20030;-67
2023/03/01 11:28:53;;;;;;;45.67;42.05;;;9.40;99.90;;;;;;5206133;28;20084;-67
2023/03/01 11:31:26;;;;;;;48.13;44.38;;;9.30;99.90;;;;;;5205929;28;20029;-67
2023/03/01 11:34:05;;;;;;;45.75;42.00;;;9.20;99.90;;;;;;5206109;28;20021;-67
2023/03/01 11:36:45;;;;;;;49.78;45.72;;;9.30;99.90;;;;;;5205116;28;20029;-67
2023/03/01 11:39:38;;;;;;;50.10;45.70;;;9.20;99.90;;;;;;5205861;28;20037;-67
2023/03/01 11:42:18;;;;;;;47.88;43.97;;;9.10;99.90;;;;;;5205870;28;20033;-67
2023/03/01 11:44:55;;;;;;;48.65;44.05;;;9.20;99.90;;;;;;5205830;28;20501;-67
2023/03/01 11:47:40;;;;;;;50.33;46.10;;;9.40;99.90;;;;;;5205705;28;20029;-67
2023/03/01 11:50:26;;;;;;;49.83;45.70;;;9.30;99.90;;;;;;5205715;28;20029;-67
2023/03/01 11:53:32;;;;;;;45.75;42.20;;;9.40;99.90;;;;;;5206001;28;20377;-67
2023/03/01 11:56:22;;;;;;;48.60;44.38;;;9.50;99.90;;;;;;5205441;28;20406;-67
2023/03/01 11:59:11;;;;;;;42.75;39.30;;;9.40;99.90;;;;;;5205112;28;20038;-67
2023/03/01 12:02:04;;;;;;;46.47;42.78;;;9.40;99.90;;;;;;5204656;28;20033;-67
2023/03/01 12:04:50;;;;;;;41.72;38.42;;;9.30;99.90;;;;;;5205653;28;20103;-67
2023/03/01 12:08:02;;;;;;;42.05;38.72;;;9.30;99.90;;;;;;5205607;28;20033;-67
2023/03/01 12:10:46;;;;;;;44.88;41.17;;;9.20;99.90;;;;;;5175810;28;20049;-67
2023/03/01 12:13:42;;;;;;;43.75;40.50;;;9.30;99.90;;;;;;5205301;28;20104;-67
2023/03/01 12:16:22;;;;;;;40.22;37.28;;;9.30;99.90;;;;;;5205113;28;20362;-67
2023/03/01 12:19:05;;;;;;;44.60;41.07;;;9.20;99.90;;;;;;5205009;28;20029;-66
2023/03/01 12:22:07;;;;;;;43.53;40.03;;;9.20;99.90;;;;;;5195363;28;20029;-67
2023/03/01 12:24:46;;;;;;;43.85;40.42;;;9.30;99.90;;;;;;5184874;28;20482;-67
2023/03/01 12:27:38;;;;;;;41.37;38.20;;;9.20;99.90;;;;;;5184664;28;20058;-67
2023/03/01 12:30:20;;;;;;;40.95;38.15;;;9.20;99.90;;;;;;5184934;28;20335;-67
2023/03/01 12:33:06;;;;;;;39.22;36.38;;;9.10;99.90;;;;;;5184829;28;20043;-66
2023/03/01 12:35:39;;;;;;;42.78;39.83;;;9.20;99.90;;;;;;5184687;28;20038;-67
2023/03/01 12:38:28;;;;;;;40.15;36.97;;;9.10;99.90;;;;;;5184821;28;20025;-67
2023/03/01 12:41:09;;;;;;;60.25;55.97;;;9.20;99.90;;;;;;5185246;28;20022;-67
2023/03/01 12:44:04;;;;;;;40.47;37.22;;;9.30;99.90;;;;;;5185000;28;20026;-67
2023/03/01 12:47:05;;;;;;;38.63;35.50;;;9.40;99.90;;;;;;5185135;28;20033;-67
2023/03/01 12:49:50;;;;;;;44.45;41.05;;;9.20;99.90;;;;;;5188557;28;20037;-66
2023/03/01 12:52:47;;;;;;;47.42;43.85;;;9.10;99.90;;;;;;5188549;28;20377;-67
2023/03/01 12:55:32;;;;;;;39.78;36.58;;;9.20;99.90;;;;;;5181736;28;20045;-67
2023/03/01 12:58:31;;;;;;;40.05;36.95;;;9.10;99.90;;;;;;5188521;28;20070;-68
2023/03/01 13:01:44;;;;;;;38.92;35.78;;;9.20;99.90;;;;;;5186998;28;20084;-68
2023/03/01 13:04:15;;;;;;;39.60;36.65;;;9.00;99.90;;;;;;5188232;28;20109;-68
2023/03/01 13:07:04;;;;;;;40.60;37.60;;;9.10;99.90;;;;;;5188131;28;20101;-68
2023/03/01 13:10:15;;;;;;;49.27;45.27;;;9.20;99.90;;;;;;5187997;28;20014;-69
2023/03/01 13:12:52;;;;;;;43.72;40.38;;;9.10;99.90;;;;;;5188045;28;20260;-68
2023/03/01 13:15:23;;;;;;;42.40;39.10;;;9.20;99.90;;;;;;5188065;28;20034;-68
2023/03/01 13:17:58;;;;;;;39.65;36.70;;;9.20;99.90;;;;;;5187948;28;20354;-68